Time;durP1;ratioP1;P1;durP2;ratioP2;P2;SDS_P1;SDS_P2;PMS_P1;PMS_P2;Temp;Humidity;BMP_temperature;BMP_pressure;BME280_temperature;BME280_humidity;BME280_pressure;Samples;Min_cycle;Max_cycle;Signal;HPM_P1;HPM_P2
2023/05/22 00:00:36;;;;;;;6.75;3.20;;;13.80;1.00;;;;;;5092123;28;20259;-58
2023/05/22 00:03:03;;;;;;;11.13;4.18;;;13.90;1.00;;;;;;5075337;28;20596;-58
2023/05/22 00:05:29;;;;;;;10.55;3.63;;;14.00;99.90;;;;;;5092892;28;20167;-58
2023/05/22 00:07:55;;;;;;;5.07;3.47;;;13.90;99.90;;;;;;5091890;28;20412;-59
2023/05/22 00:10:21;;;;;;;6.97;3.50;;;13.90;1.00;;;;;;5092514;28;20230;-59
2023/05/22 00:12:46;;;;;;;7.72;3.28;;;13.90;1.00;;;;;;5091379;28;20558;-59
2023/05/22 00:15:12;;;;;;;7.40;3.67;;;13.90;1.00;;;;;;5091555;28;20176;-58
2023/05/22 00:17:38;;;;;;;7.68;3.63;;;13.90;99.90;;;;;;5090756;28;20698;-58
2023/05/22 00:20:07;;;;;;;8.05;3.45;;;13.90;99.90;;;;;;5092065;28;20176;-58
2023/05/22 00:22:36;;;;;;;10.30;3.63;;;13.90;1.00;;;;;;5092659;28;20214;-59
2023/05/22 00:25:04;;;;;;;6.28;3.55;;;13.80;1.00;;;;;;5092701;28;20258;-59
2023/05/22 00:27:30;;;;;;;8.75;4.13;;;13.80;1.00;;;;;;5092467;28;20585;-59
2023/05/22 00:29:57;;;;;;;7.60;3.75;;;13.90;1.00;;;;;;5092582;28;20172;-59
2023/05/22 00:32:22;;;;;;;7.93;3.58;;;13.70;1.00;;;;;;5092488;28;20171;-59
2023/05/22 00:34:49;;;;;;;10.82;4.10;;;14.00;1.00;;;;;;5092230;28;20179;-59
2023/05/22 00:37:14;;;;;;;8.60;4.25;;;13.40;99.90;;;;;;5092112;28;20215;-59
2023/05/22 00:39:40;;;;;;;9.23;3.67;;;13.60;99.90;;;;;;5092063;28;20250;-59
2023/05/22 00:42:05;;;;;;;12.00;4.05;;;13.60;99.90;;;;;;5092049;28;20229;-59
2023/05/22 00:44:31;;;;;;;10.10;4.22;;;13.50;99.90;;;;;;5092169;28;20199;-59
2023/05/22 00:46:57;;;;;;;6.65;4.03;;;13.50;1.00;;;;;;5092065;28;20209;-59
2023/05/22 00:49:22;;;;;;;10.80;4.10;;;13.50;1.00;;;;;;5091498;28;20260;-59
2023/05/22 00:51:48;;;;;;;10.43;4.07;;;13.40;1.00;;;;;;5092037;28;20168;-60
2023/05/22 00:54:15;;;;;;;6.75;3.80;;;13.40;1.00;;;;;;5091837;28;20639;-60
2023/05/22 00:56:41;;;;;;;9.30;4.65;;;13.30;99.90;;;;;;5091873;28;20207;-60
2023/05/22 00:59:07;;;;;;;8.00;4.18;;;13.30;99.90;;;;;;5091849;28;20175;-59
2023/05/22 01:01:35;;;;;;;7.88;4.05;;;13.20;99.90;;;;;;5091643;28;20172;-58
2023/05/22 01:04:03;;;;;;;9.25;4.28;;;13.10;99.90;;;;;;5091834;28;20171;-58
2023/05/22 01:06:30;;;;;;;8.75;4.05;;;13.00;99.90;;;;;;5091726;28;20202;-59
2023/05/22 01:08:56;;;;;;;8.15;4.20;;;13.00;99.90;;;;;;5090698;28;20190;-58
2023/05/22 01:11:31;;;;;;;10.73;4.22;;;12.90;99.90;;;;;;5091738;28;20262;-58
2023/05/22 01:14:02;;;;;;;12.18;4.75;;;12.90;99.90;;;;;;5091601;28;20168;-57
2023/05/22 01:16:54;;;;;;;12.27;4.33;;;12.60;99.90;;;;;;5091692;28;20179;-57
2023/05/22 01:19:33;;;;;;;8.93;4.40;;;12.90;99.90;;;;;;5088647;28;20198;-58
2023/05/22 01:22:20;;;;;;;9.07;4.60;;;12.90;99.90;;;;;;5091764;28;20483;-58
2023/05/22 01:24:59;;;;;;;9.32;4.35;;;12.90;99.90;;;;;;5091694;28;20229;-58
2023/05/22 01:27:44;;;;;;;9.60;4.50;;;12.90;99.90;;;;;;5075128;28;20177;-58
2023/05/22 01:30:17;;;;;;;11.57;4.93;;;12.80;99.90;;;;;;5071363;28;20194;-58
2023/05/22 01:32:45;;;;;;;12.45;4.32;;;12.90;99.90;;;;;;5071333;28;20258;-58
2023/05/22 01:35:14;;;;;;;9.73;4.55;;;12.90;99.90;;;;;;5071150;28;20176;-58
2023/05/22 01:37:42;;;;;;;7.57;4.38;;;12.80;99.90;;;;;;5071043;28;20200;-58
2023/05/22 01:40:10;;;;;;;6.97;4.32;;;12.80;99.90;;;;;;5070798;28;20212;-57
2023/05/22 01:42:36;;;;;;;8.93;4.38;;;12.60;99.90;;;;;;5071073;28;20191;-58
2023/05/22 01:45:02;;;;;;;8.90;4.00;;;12.70;99.90;;;;;;5071029;28;20636;-58
2023/05/22 01:47:28;;;;;;;10.25;4.32;;;12.70;99.90;;;;;;5071052;28;20207;-58
2023/05/22 01:49:54;;;;;;;11.10;4.20;;;12.80;99.90;;;;;;5053075;28;20177;-58
2023/05/22 01:52:43;;;;;;;7.45;4.07;;;12.70;99.90;;;;;;5070875;28;20225;-56
2023/05/22 01:55:16;;;;;;;11.82;4.13;;;12.70;99.90;;;;;;5053921;28;20255;-56
2023/05/22 01:58:20;;;;;;;14.90;4.20;;;12.80;98.80;;;;;;5070748;28;20208;-56
2023/05/22 02:00:46;;;;;;;5.85;3.83;;;12.80;1.00;;;;;;4992447;28;20183;-59
2023/05/22 02:03:20;;;;;;;11.55;4.20;;;12.70;1.00;;;;;;5068044;28;20233;-57
2023/05/22 02:05:52;;;;;;;9.77;4.33;;;12.50;1.00;;;;;;5091059;28;20180;-57
2023/05/22 02:08:19;;;;;;;7.85;4.28;;;12.50;1.00;;;;;;5090822;28;20179;-56
2023/05/22 02:10:45;;;;;;;7.60;3.73;;;12.60;1.00;;;;;;5090835;28;20168;-57
2023/05/22 02:13:11;;;;;;;11.82;4.35;;;12.50;1.00;;;;;;5090865;28;20178;-57
2023/05/22 02:15:37;;;;;;;8.32;3.63;;;12.50;1.00;;;;;;5090845;28;20160;-57
2023/05/22 02:18:08;;;;;;;10.00;4.35;;;12.50;1.00;;;;;;5090926;28;20223;-57
2023/05/22 02:20:34;;;;;;;6.15;3.35;;;12.50;1.00;;;;;;5090850;28;20179;-57
2023/05/22 02:23:00;;;;;;;7.15;3.75;;;;;;;;;;5090842;28;20176;-57
2023/05/22 02:25:26;;;;;;;10.03;4.03;;;;;;;;;;5090721;28;20179;-57
2023/05/22 02:27:51;;;;;;;6.93;3.90;;;12.50;99.90;;;;;;5090687;28;20682;-58
2023/05/22 02:30:17;;;;;;;11.43;3.87;;;12.70;99.90;;;;;;5090156;28;20250;-58
2023/05/22 02:32:42;;;;;;;8.35;3.53;;;12.50;99.90;;;;;;5090819;28;20202;-58
2023/05/22 02:35:08;;;;;;;8.27;3.67;;;12.40;29.40;;;;;;5090775;28;20667;-58
2023/05/22 02:37:34;;;;;;;10.53;3.90;;;12.50;99.90;;;;;;5090790;28;20254;-58
2023/05/22 02:40:00;;;;;;;7.00;3.73;;;12.40;1.00;;;;;;5090569;28;20235;-58
2023/05/22 02:42:26;;;;;;;5.75;3.15;;;12.40;1.00;;;;;;5090637;28;20655;-58
2023/05/22 02:44:51;;;;;;;7.33;3.70;;;12.30;70.90;;;;;;5090716;28;20620;-58
2023/05/22 02:47:17;;;;;;;8.03;3.93;;;12.20;99.90;;;;;;5090518;28;20179;-58
2023/05/22 02:49:43;;;;;;;7.10;3.83;;;12.30;99.90;;;;;;5090547;28;20172;-58
2023/05/22 02:52:09;;;;;;;8.90;4.00;;;12.10;99.90;;;;;;5090551;28;20218;-58
2023/05/22 02:54:35;;;;;;;10.30;4.10;;;12.10;99.90;;;;;;5090614;28;20670;-58
2023/05/22 02:57:01;;;;;;;7.47;3.70;;;12.10;99.90;;;;;;5090440;28;20325;-58
2023/05/22 02:59:27;;;;;;;9.07;3.67;;;12.10;99.90;;;;;;5086346;28;20213;-58
2023/05/22 03:01:53;;;;;;;6.77;3.87;;;12.00;6.30;;;;;;5084616;28;20265;-58
2023/05/22 03:04:18;;;;;;;10.87;3.77;;;12.00;1.00;;;;;;5072636;28;20230;-58
2023/05/22 03:06:45;;;;;;;8.10;3.88;;;12.00;1.00;;;;;;5075401;28;20759;-58
2023/05/22 03:09:10;;;;;;;7.27;3.80;;;11.90;99.90;;;;;;5090198;28;20178;-58
2023/05/22 03:11:36;;;;;;;8.63;3.37;;;11.90;99.90;;;;;;5091898;28;20180;-57
2023/05/22 03:14:02;;;;;;;10.93;3.70;;;11.90;99.90;;;;;;5093873;28;20182;-57
2023/05/22 03:16:28;;;;;;;10.70;3.60;;;11.90;99.90;;;;;;5094128;28;20180;-58
2023/05/22 03:19:09;;;;;;;9.30;3.43;;;11.80;99.90;;;;;;5093286;28;20183;-58
2023/05/22 03:21:35;;;;;;;9.10;3.63;;;11.70;99.90;;;;;;5093748;28;20179;-57
2023/05/22 03:24:01;;;;;;;7.90;4.10;;;11.90;99.90;;;;;;5093245;28;20509;-58
2023/05/22 03:26:27;;;;;;;9.50;3.60;;;11.40;99.90;;;;;;5093574;28;20233;-58
2023/05/22 03:28:54;;;;;;;9.90;3.67;;;11.50;99.90;;;;;;5093704;28;20191;-58
2023/05/22 03:31:20;;;;;;;8.10;3.70;;;11.40;99.90;;;;;;5093260;28;20176;-58
2023/05/22 03:33:45;;;;;;;6.10;3.27;;;11.40;99.90;;;;;;5093252;28;20172;-58
2023/05/22 03:36:11;;;;;;;6.70;3.67;;;11.40;99.90;;;;;;5093591;28;20168;-58
2023/05/22 03:38:37;;;;;;;7.00;4.00;;;11.20;99.90;;;;;;5093191;28;20252;-58
2023/05/22 03:41:02;;;;;;;5.83;3.60;;;11.20;99.90;;;;;;5093475;28;20272;-57
2023/05/22 03:43:29;;;;;;;7.63;4.00;;;11.10;99.90;;;;;;5093165;28;20204;-57
2023/05/22 03:45:54;;;;;;;7.83;3.50;;;11.10;99.90;;;;;;5093504;28;20198;-58
2023/05/22 03:48:20;;;;;;;6.93;3.53;;;11.30;99.90;;;;;;5093188;28;20168;-59
2023/05/22 03:50:46;;;;;;;11.77;4.03;;;11.50;99.90;;;;;;5092933;28;20540;-58
2023/05/22 03:53:11;;;;;;;8.77;3.73;;;11.10;99.90;;;;;;5092925;28;20262;-61
2023/05/22 03:55:37;;;;;;;9.40;3.53;;;13.10;99.90;;;;;;5092936;28;20179;-61
2023/05/22 03:58:02;;;;;;;10.23;3.50;;;11.40;99.90;;;;;;5092780;28;20687;-58
2023/05/22 04:00:28;;;;;;;10.50;3.73;;;11.10;99.90;;;;;;5092880;28;20172;-57
2023/05/22 04:02:57;;;;;;;8.87;3.90;;;11.00;99.90;;;;;;5084617;28;20188;-58
2023/05/22 04:05:22;;;;;;;6.30;3.53;;;10.90;99.90;;;;;;5072880;28;20191;-59
2023/05/22 04:07:48;;;;;;;7.50;3.87;;;10.70;99.90;;;;;;5079398;28;20672;-60
2023/05/22 04:10:14;;;;;;;6.40;3.33;;;10.90;99.90;;;;;;5093025;28;20179;-58
2023/05/22 04:12:39;;;;;;;7.80;3.80;;;11.20;99.90;;;;;;5093223;28;20187;-59
2023/05/22 04:15:06;;;;;;;7.70;3.43;;;11.30;99.90;;;;;;5092971;28;20658;-58
2023/05/22 04:17:32;;;;;;;7.53;4.00;;;10.70;99.90;;;;;;5092670;28;20237;-58
2023/05/22 04:19:59;;;;;;;7.70;3.67;;;10.90;99.90;;;;;;5092565;28;20259;-57
2023/05/22 04:22:29;;;;;;;10.53;3.80;;;10.90;99.90;;;;;;5091646;28;20188;-57
2023/05/22 04:24:55;;;;;;;9.70;4.30;;;10.80;99.90;;;;;;5092838;28;20176;-59
2023/05/22 04:27:21;;;;;;;11.13;4.10;;;10.80;99.90;;;;;;5092599;28;20201;-58
2023/05/22 04:29:49;;;;;;;8.63;4.30;;;10.70;99.90;;;;;;5092598;28;20258;-60
2023/05/22 04:32:17;;;;;;;9.73;4.73;;;;;;;;;;5092629;28;20172;-60
2023/05/22 04:34:44;;;;;;;10.07;4.67;;;10.70;99.90;;;;;;5092392;28;20168;-60
2023/05/22 04:37:10;;;;;;;8.00;4.50;;;10.90;99.90;;;;;;5092444;28;20324;-60
2023/05/22 04:39:36;;;;;;;10.10;4.73;;;10.80;99.90;;;;;;5092599;28;20258;-60
2023/05/22 04:42:04;;;;;;;9.93;4.63;;;10.90;99.90;;;;;;5092329;28;20249;-60
2023/05/22 04:44:33;;;;;;;11.33;4.87;;;10.90;99.90;;;;;;5091097;28;20172;-60
2023/05/22 04:47:01;;;;;;;12.93;5.00;;;11.00;99.90;;;;;;5091993;28;20241;-60
2023/05/22 04:49:27;;;;;;;9.90;5.10;;;11.00;99.90;;;;;;5092099;28;20756;-59
2023/05/22 04:52:03;;;;;;;10.47;5.40;;;11.00;99.90;;;;;;5092208;28;20168;-58
2023/05/22 04:54:29;;;;;;;9.80;5.20;;;11.20;99.90;;;;;;5092194;28;20163;-59
2023/05/22 04:56:54;;;;;;;12.70;4.93;;;11.20;99.90;;;;;;5092064;28;20287;-59
2023/05/22 04:59:22;;;;;;;9.70;4.70;;;11.50;99.90;;;;;;5091987;28;20275;-59
2023/05/22 05:01:49;;;;;;;9.93;4.77;;;11.40;99.90;;;;;;5073773;28;20644;-60
2023/05/22 05:04:16;;;;;;;10.23;5.10;;;11.50;99.90;;;;;;5092120;28;20198;-59
2023/05/22 05:06:42;;;;;;;13.27;5.30;;;11.80;99.90;;;;;;5092310;28;20259;-60
2023/05/22 05:09:07;;;;;;;9.87;5.60;;;11.60;99.90;;;;;;5091862;28;20265;-59
2023/05/22 05:11:33;;;;;;;12.30;5.20;;;11.60;99.90;;;;;;5091805;28;20182;-59
2023/05/22 05:13:59;;;;;;;8.73;5.27;;;;;;;;;;5091931;28;20167;-58
2023/05/22 05:16:25;;;;;;;9.63;5.17;;;11.70;99.90;;;;;;5091668;28;20225;-61
2023/05/22 05:18:52;;;;;;;12.53;5.30;;;;;;;;;;5091751;28;20176;-60
2023/05/22 05:21:21;;;;;;;11.23;5.37;;;12.00;99.90;;;;;;5091707;28;20280;-58
2023/05/22 05:23:47;;;;;;;10.77;5.30;;;11.90;99.90;;;;;;5091761;28;20194;-59
2023/05/22 05:26:13;;;;;;;10.53;5.53;;;12.10;99.90;;;;;;5091597;28;20164;-58
2023/05/22 05:28:39;;;;;;;9.73;5.27;;;12.10;99.90;;;;;;5091516;28;20171;-58
2023/05/22 05:31:06;;;;;;;9.20;5.30;;;12.20;99.90;;;;;;5091501;28;20218;-59
2023/05/22 05:33:32;;;;;;;10.63;5.67;;;12.20;99.90;;;;;;5091495;28;20175;-58
2023/05/22 05:35:58;;;;;;;10.53;5.07;;;12.20;99.90;;;;;;5091605;28;20259;-58
2023/05/22 05:38:23;;;;;;;10.90;5.47;;;12.20;99.90;;;;;;5091305;28;20203;-59
2023/05/22 05:40:49;;;;;;;8.20;4.53;;;12.20;99.90;;;;;;5091172;28;20215;-59
2023/05/22 05:43:15;;;;;;;12.90;5.53;;;12.20;99.90;;;;;;5089148;28;20206;-59
2023/05/22 05:45:41;;;;;;;9.50;5.27;;;10.70;99.90;;;;;;5071031;28;20172;-60
2023/05/22 05:48:07;;;;;;;10.13;5.32;;;12.30;99.90;;;;;;5071012;28;20199;-59
2023/05/22 05:50:32;;;;;;;11.20;5.30;;;12.30;99.90;;;;;;5071039;28;20176;-59
2023/05/22 05:52:58;;;;;;;14.70;5.90;;;12.40;99.90;;;;;;5071014;28;20306;-59
2023/05/22 05:55:23;;;;;;;14.70;5.50;;;12.50;18.80;;;;;;5071087;28;20516;-60
2023/05/22 05:57:50;;;;;;;10.37;5.20;;;12.50;24.50;;;;;;5070907;28;20810;-60
2023/05/22 06:00:15;;;;;;;12.83;5.27;;;12.40;1.00;;;;;;5070729;28;20672;-60
2023/05/22 06:02:42;;;;;;;16.40;5.50;;;12.90;1.00;;;;;;5071389;28;20176;-60
2023/05/22 06:05:08;;;;;;;11.87;5.30;;;12.70;1.00;;;;;;5070786;28;20258;-60
2023/05/22 06:07:38;;;;;;;11.77;5.27;;;12.90;1.00;;;;;;5070872;28;20176;-60
2023/05/22 06:10:05;;;;;;;9.43;4.40;;;12.80;1.00;;;;;;5070957;28;20168;-57
2023/05/22 06:12:31;;;;;;;14.98;5.38;;;12.90;1.00;;;;;;5070794;28;20242;-57
2023/05/22 06:14:57;;;;;;;10.63;4.73;;;12.90;99.90;;;;;;5070744;28;20169;-57
2023/05/22 06:17:22;;;;;;;13.65;4.55;;;13.00;99.90;;;;;;5070659;28;20215;-57
2023/05/22 06:19:48;;;;;;;10.27;4.80;;;13.10;99.90;;;;;;5070607;28;20659;-60
2023/05/22 06:22:14;;;;;;;11.43;4.82;;;13.10;4.70;;;;;;5070700;28;20164;-58
2023/05/22 06:24:40;;;;;;;11.40;5.03;;;13.10;1.00;;;;;;5075180;28;20580;-58
2023/05/22 06:27:05;;;;;;;9.33;5.20;;;13.30;1.00;;;;;;5089929;28;20683;-58
2023/05/22 06:29:31;;;;;;;8.25;4.50;;;13.40;1.00;;;;;;5089971;28;20175;-59
2023/05/22 06:31:57;;;;;;;12.77;4.65;;;13.50;1.00;;;;;;5090547;28;20205;-58
2023/05/22 06:34:23;;;;;;;9.32;4.85;;;13.70;43.30;;;;;;5090745;28;20220;-59
2023/05/22 06:36:51;;;;;;;9.82;4.90;;;13.70;1.00;;;;;;5090786;28;20203;-59
2023/05/22 06:39:17;;;;;;;10.75;5.47;;;13.90;1.00;;;;;;5090800;28;20168;-59
2023/05/22 06:41:43;;;;;;;13.93;5.07;;;14.00;1.00;;;;;;5090200;28;20215;-59
2023/05/22 06:44:11;;;;;;;11.93;4.93;;;;;;;;;;5089594;28;20175;-58
2023/05/22 06:46:36;;;;;;;9.77;4.57;;;14.20;1.00;;;;;;5091890;28;20225;-59
2023/05/22 06:49:02;;;;;;;10.60;4.80;;;14.20;99.90;;;;;;5092249;28;20168;-58
2023/05/22 06:51:28;;;;;;;10.48;4.40;;;14.20;1.00;;;;;;5094297;28;20178;-59
2023/05/22 06:53:53;;;;;;;12.27;4.45;;;14.20;1.00;;;;;;5094120;28;20260;-59
2023/05/22 06:56:19;;;;;;;12.95;5.03;;;14.20;99.90;;;;;;5094211;28;20253;-59
2023/05/22 06:58:45;;;;;;;11.23;4.90;;;14.40;1.00;;;;;;5094172;28;20578;-59
2023/05/22 07:01:10;;;;;;;12.10;4.90;;;14.40;99.90;;;;;;5094166;28;20667;-58
2023/05/22 07:03:36;;;;;;;10.05;4.93;;;14.40;99.90;;;;;;5094442;28;20237;-59
2023/05/22 07:06:02;;;;;;;14.38;5.00;;;14.50;99.90;;;;;;5093912;28;20217;-58
2023/05/22 07:08:28;;;;;;;11.00;5.68;;;14.50;99.90;;;;;;5079609;28;20210;-59
2023/05/22 07:10:53;;;;;;;8.45;4.90;;;14.80;1.00;;;;;;5073689;28;20656;-58
2023/05/22 07:13:19;;;;;;;11.52;4.97;;;14.60;1.00;;;;;;5085878;28;20221;-59
2023/05/22 07:15:45;;;;;;;14.52;5.60;;;14.70;1.00;;;;;;5092663;28;20179;-59
2023/05/22 07:18:11;;;;;;;12.68;6.00;;;14.90;1.00;;;;;;5093722;28;20204;-59
2023/05/22 07:20:37;;;;;;;16.35;5.28;;;14.90;1.00;;;;;;5093258;28;20223;-59
2023/05/22 07:23:02;;;;;;;11.40;5.53;;;15.20;99.90;;;;;;5093853;28;20180;-60
2023/05/22 07:25:28;;;;;;;17.45;6.00;;;15.20;99.90;;;;;;5093459;28;20758;-59
2023/05/22 07:27:54;;;;;;;11.05;6.13;;;15.40;3.60;;;;;;5094134;28;20172;-59
2023/05/22 07:30:20;;;;;;;12.68;5.60;;;15.60;1.00;;;;;;5093841;28;20532;-59
2023/05/22 07:32:47;;;;;;;11.68;6.07;;;15.50;1.00;;;;;;5093055;28;20270;-59
2023/05/22 07:35:12;;;;;;;11.02;5.70;;;15.70;1.00;;;;;;5093105;28;20187;-59
2023/05/22 07:37:38;;;;;;;11.90;5.72;;;15.60;1.00;;;;;;5093300;28;20568;-60
2023/05/22 07:40:06;;;;;;;13.00;5.85;;;15.80;1.00;;;;;;5093307;28;20259;-60
2023/05/22 07:42:31;;;;;;;14.70;5.55;;;16.10;99.90;;;;;;5092337;28;20659;-59
2023/05/22 07:44:57;;;;;;;12.82;5.10;;;16.30;1.00;;;;;;5092979;28;20257;-59
2023/05/22 07:47:23;;;;;;;15.40;5.80;;;16.20;99.90;;;;;;5093531;28;20202;-60
2023/05/22 07:49:48;;;;;;;9.45;4.95;;;16.30;99.90;;;;;;5093125;28;20514;-60
2023/05/22 07:52:14;;;;;;;10.27;5.15;;;16.40;99.90;;;;;;5093302;28;20211;-60
2023/05/22 07:54:40;;;;;;;13.32;6.03;;;16.60;1.00;;;;;;5075008;28;20214;-59
2023/05/22 07:57:06;;;;;;;11.07;5.20;;;16.70;99.90;;;;;;5092811;28;20200;-60
2023/05/22 07:59:32;;;;;;;11.38;5.13;;;16.60;99.90;;;;;;5092461;28;20587;-60
2023/05/22 08:01:58;;;;;;;20.75;5.95;;;16.90;99.90;;;;;;5093002;28;20180;-60
2023/05/22 08:04:24;;;;;;;18.60;5.53;;;16.90;1.00;;;;;;5092493;28;20176;-58
2023/05/22 08:06:50;;;;;;;11.05;5.25;;;17.10;1.00;;;;;;5092053;28;20218;-59
2023/05/22 08:09:16;;;;;;;14.15;4.93;;;17.20;1.00;;;;;;5092488;28;20195;-59
2023/05/22 08:11:41;;;;;;;13.50;5.10;;;17.10;1.00;;;;;;5092571;28;20238;-58
2023/05/22 08:14:07;;;;;;;8.60;4.70;;;17.20;1.00;;;;;;5092382;28;20172;-59
2023/05/22 08:16:33;;;;;;;21.08;5.55;;;17.20;1.00;;;;;;5092644;28;20281;-57
2023/05/22 08:18:59;;;;;;;14.35;5.55;;;17.20;1.00;;;;;;5092727;28;20250;-57
2023/05/22 08:21:25;;;;;;;13.40;5.13;;;17.30;1.00;;;;;;5092794;28;20540;-57
2023/05/22 08:23:50;;;;;;;8.95;4.78;;;17.50;1.00;;;;;;5073330;28;20195;-59
2023/05/22 08:26:16;;;;;;;11.43;4.88;;;17.50;99.90;;;;;;5092158;28;20197;-58
2023/05/22 08:28:43;;;;;;;9.25;4.70;;;17.70;99.90;;;;;;5092538;28;20168;-58
2023/05/22 08:31:12;;;;;;;8.55;5.03;;;17.80;99.90;;;;;;5092708;28;20264;-58
2023/05/22 08:33:38;;;;;;;11.13;4.78;;;17.90;1.00;;;;;;5092426;28;20179;-58
2023/05/22 08:36:04;;;;;;;13.50;4.88;;;18.10;82.00;;;;;;5092471;28;20168;-58
2023/05/22 08:38:30;;;;;;;9.20;5.20;;;17.90;1.00;;;;;;5092195;28;20235;-59
2023/05/22 08:40:57;;;;;;;10.25;4.43;;;18.10;1.00;;;;;;5092060;28;20721;-58
2023/05/22 08:43:23;;;;;;;24.45;5.00;;;18.00;1.00;;;;;;5092197;28;20172;-58
2023/05/22 08:46:02;;;;;;;10.98;4.05;;;18.40;1.00;;;;;;5091228;28;20183;-59
2023/05/22 08:48:32;;;;;;;8.80;4.65;;;18.60;1.00;;;;;;5090594;28;20180;-59
2023/05/22 08:51:02;;;;;;;10.20;4.70;;;18.80;99.90;;;;;;5073945;28;20229;-59
2023/05/22 08:53:32;;;;;;;6.20;4.03;;;18.70;99.90;;;;;;5091372;28;20198;-60
2023/05/22 08:55:59;;;;;;;9.10;4.00;;;18.80;99.90;;;;;;5087852;28;20723;-60
2023/05/22 08:58:25;;;;;;;8.98;4.15;;;18.80;99.90;;;;;;5091301;28;20216;-60
2023/05/22 09:00:52;;;;;;;10.55;4.65;;;19.00;99.90;;;;;;5091879;28;20175;-60
2023/05/22 09:03:20;;;;;;;15.88;4.25;;;19.00;16.50;;;;;;5091605;28;20263;-60
2023/05/22 09:05:46;;;;;;;10.15;4.22;;;19.80;1.00;;;;;;5091867;28;20195;-60
2023/05/22 09:08:11;;;;;;;10.98;4.28;;;19.70;1.00;;;;;;5091266;28;20607;-59
2023/05/22 09:10:37;;;;;;;8.23;3.83;;;19.60;1.00;;;;;;5091425;28;20237;-60
2023/05/22 09:13:08;;;;;;;7.22;3.70;;;19.60;1.00;;;;;;5090818;28;20176;-60
2023/05/22 09:15:35;;;;;;;10.90;4.18;;;19.70;1.00;;;;;;5091785;28;20628;-59
2023/05/22 09:18:02;;;;;;;20.15;4.70;;;20.10;1.00;;;;;;5092101;28;20219;-59
2023/05/22 09:20:28;;;;;;;7.03;4.10;;;20.00;71.20;;;;;;5091640;28;20357;-59
2023/05/22 09:22:55;;;;;;;7.93;4.00;;;20.90;1.00;;;;;;5091220;28;20719;-60
2023/05/22 09:25:21;;;;;;;8.10;4.35;;;;;;;;;;5091570;28;20208;-59
2023/05/22 09:27:48;;;;;;;10.85;4.10;;;21.30;1.00;;;;;;5091575;28;20556;-60
2023/05/22 09:30:17;;;;;;;12.52;4.72;;;21.80;1.00;;;;;;5089748;28;20179;-60
2023/05/22 09:32:43;;;;;;;10.20;4.97;;;;;;;;;;5090225;28;20180;-60
2023/05/22 09:35:09;;;;;;;13.93;4.15;;;22.00;1.00;;;;;;5071583;28;20187;-59
2023/05/22 09:37:35;;;;;;;10.95;4.45;;;22.00;1.00;;;;;;5090415;28;20208;-60
2023/05/22 09:40:09;;;;;;;10.15;4.88;;;22.50;1.00;;;;;;5090603;28;20290;-60
2023/05/22 09:42:36;;;;;;;11.45;4.55;;;22.30;1.00;;;;;;5090583;28;20213;-60
2023/05/22 09:45:05;;;;;;;15.43;4.57;;;22.40;1.00;;;;;;5090798;28;20172;-60
2023/05/22 09:47:33;;;;;;;6.45;4.07;;;21.90;1.00;;;;;;5091028;28;20246;-60
2023/05/22 09:50:05;;;;;;;9.15;4.55;;;22.30;1.00;;;;;;5091209;28;20254;-60
2023/05/22 09:52:35;;;;;;;9.18;4.55;;;22.50;99.90;;;;;;5091134;28;20182;-60
2023/05/22 09:55:07;;;;;;;11.27;4.22;;;23.00;99.90;;;;;;5091075;28;20182;-62
2023/05/22 09:57:47;;;;;;;9.25;4.18;;;23.20;99.90;;;;;;5091027;28;20229;-60
2023/05/22 10:00:14;;;;;;;10.50;4.88;;;23.30;99.90;;;;;;5090734;28;20194;-61
2023/05/22 10:02:48;;;;;;;9.35;3.63;;;23.60;1.00;;;;;;5091060;28;20200;-61
2023/05/22 10:05:20;;;;;;;10.88;3.63;;;;;;;;;;5090859;28;20620;-60
2023/05/22 10:07:49;;;;;;;9.15;3.50;;;23.60;1.00;;;;;;5073676;28;20671;-60
2023/05/22 10:10:17;;;;;;;10.00;3.67;;;23.90;1.00;;;;;;5090877;28;20243;-60
2023/05/22 10:12:47;;;;;;;10.30;3.35;;;23.30;1.00;;;;;;5090916;28;20182;-60
2023/05/22 10:15:14;;;;;;;7.82;2.90;;;23.50;1.00;;;;;;5090763;28;20568;-60
2023/05/22 10:17:40;;;;;;;5.32;3.40;;;23.50;99.90;;;;;;5090992;28;20239;-60
2023/05/22 10:20:08;;;;;;;6.75;2.78;;;23.40;99.90;;;;;;5090815;28;20159;-60
2023/05/22 10:22:36;;;;;;;11.63;3.53;;;23.60;99.90;;;;;;5094471;28;20175;-60
2023/05/22 10:25:02;;;;;;;9.32;3.42;;;23.60;99.90;;;;;;5095127;28;20581;-60
2023/05/22 10:27:27;;;;;;;5.53;3.20;;;23.70;99.90;;;;;;5094981;28;20163;-60
2023/05/22 10:30:28;;;;;;;8.23;3.33;;;24.00;99.90;;;;;;5094961;28;20213;-60
2023/05/22 10:33:07;;;;;;;10.25;3.63;;;24.10;99.90;;;;;;5094904;28;20745;-60
2023/05/22 10:35:52;;;;;;;8.63;3.35;;;24.20;15.70;;;;;;5094903;28;20175;-60
2023/05/22 10:38:42;;;;;;;8.52;3.45;;;24.70;4.50;;;;;;5094855;28;20203;-60
2023/05/22 10:41:09;;;;;;;9.77;3.35;;;24.50;1.00;;;;;;5094531;28;20223;-60
2023/05/22 10:43:43;;;;;;;7.43;3.00;;;24.10;1.00;;;;;;5094590;28;20168;-60
2023/05/22 10:46:11;;;;;;;6.18;3.30;;;24.50;99.90;;;;;;5094758;28;20175;-60
2023/05/22 10:48:44;;;;;;;5.50;3.00;;;24.90;99.90;;;;;;5094446;28;20187;-59
2023/05/22 10:51:12;;;;;;;7.80;3.75;;;25.30;1.00;;;;;;5094499;28;20248;-60
2023/05/22 10:53:41;;;;;;;7.90;3.67;;;24.80;99.90;;;;;;5094474;28;20168;-60
2023/05/22 10:56:14;;;;;;;6.03;3.33;;;25.40;99.90;;;;;;5094331;28;20207;-60
2023/05/22 10:58:54;;;;;;;7.97;3.53;;;25.30;1.00;;;;;;5094155;28;20610;-60
2023/05/22 11:01:21;;;;;;;6.72;3.30;;;24.70;1.00;;;;;;5094316;28;20192;-60
2023/05/22 11:04:03;;;;;;;6.97;3.38;;;25.20;1.00;;;;;;5094429;28;20180;-60
2023/05/22 11:06:41;;;;;;;5.80;3.60;;;25.60;1.00;;;;;;5094107;28;20170;-60
2023/05/22 11:09:32;;;;;;;7.30;3.10;;;26.40;1.00;;;;;;5080045;28;20259;-60
2023/05/22 11:12:16;;;;;;;6.38;3.20;;;25.60;1.00;;;;;;5073883;28;20305;-59
2023/05/22 11:14:56;;;;;;;5.75;3.00;;;25.80;1.00;;;;;;5073907;28;20282;-60
2023/05/22 11:17:29;;;;;;;11.77;3.55;;;26.30;1.00;;;;;;5074006;28;20208;-60
2023/05/22 11:19:59;;;;;;;6.70;3.03;;;26.50;1.00;;;;;;5073656;28;20161;-60
2023/05/22 11:22:41;;;;;;;6.38;3.88;;;26.80;1.00;;;;;;5073440;28;20210;-60
2023/05/22 11:25:09;;;;;;;13.65;3.85;;;27.50;1.00;;;;;;5073650;28;20255;-60
2023/05/22 11:27:35;;;;;;;5.78;3.25;;;;;;;;;;5055591;28;20629;-60
2023/05/22 11:30:02;;;;;;;8.93;3.22;;;27.30;99.90;;;;;;5073766;28;20180;-60
2023/05/22 11:32:28;;;;;;;4.93;3.10;;;27.70;80.00;;;;;;5073159;28;20177;-59
2023/05/22 11:34:56;;;;;;;6.68;2.70;;;28.10;99.90;;;;;;5073361;28;20218;-60
2023/05/22 11:37:22;;;;;;;5.95;2.67;;;28.30;1.00;;;;;;5085800;28;20222;-59
2023/05/22 11:39:51;;;;;;;8.70;3.20;;;28.10;1.00;;;;;;5093067;28;20672;-60
2023/05/22 11:42:19;;;;;;;10.93;3.50;;;28.30;1.00;;;;;;5093422;28;20511;-60
2023/05/22 11:44:45;;;;;;;12.65;5.15;;;;;;;;;;5093082;28;20274;-60
2023/05/22 11:47:11;;;;;;;32.25;4.28;;;28.20;1.00;;;;;;5093413;28;20214;-59
2023/05/22 11:49:36;;;;;;;6.72;2.85;;;28.10;1.00;;;;;;5092691;28;20211;-60
2023/05/22 11:52:03;;;;;;;4.78;2.88;;;27.10;1.00;;;;;;5093376;28;20168;-59
2023/05/22 11:54:32;;;;;;;9.75;2.70;;;27.30;1.00;;;;;;5093160;28;20579;-59
2023/05/22 11:56:57;;;;;;;7.30;2.95;;;27.50;1.00;;;;;;5093237;28;20758;-60
2023/05/22 11:59:23;;;;;;;8.02;3.83;;;28.20;1.00;;;;;;5093418;28;20263;-60
2023/05/22 12:01:50;;;;;;;10.10;3.83;;;28.70;1.00;;;;;;5093279;28;20589;-60
2023/05/22 12:04:15;;;;;;;19.00;3.47;;;28.90;1.00;;;;;;5074951;28;20266;-60
2023/05/22 12:06:41;;;;;;;11.98;3.20;;;29.10;1.00;;;;;;5092465;28;20616;-59
2023/05/22 12:09:07;;;;;;;5.63;2.97;;;29.60;1.00;;;;;;5078524;28;20202;-60
2023/05/22 12:11:36;;;;;;;11.82;3.25;;;29.90;1.00;;;;;;5072757;28;20251;-60
2023/05/22 12:14:03;;;;;;;6.85;3.28;;;29.60;1.00;;;;;;5054690;28;20551;-60
2023/05/22 12:16:36;;;;;;;5.43;3.38;;;29.40;1.00;;;;;;5072746;28;20172;-60
2023/05/22 12:19:09;;;;;;;7.75;3.03;;;30.00;1.00;;;;;;5072601;28;20240;-60
2023/05/22 12:21:38;;;;;;;7.25;3.20;;;29.20;1.00;;;;;;5091785;28;20206;-60
2023/05/22 12:24:04;;;;;;;9.15;3.13;;;28.80;1.00;;;;;;5092414;28;20160;-60
2023/05/22 12:26:31;;;;;;;9.35;3.10;;;29.50;1.00;;;;;;5091941;28;20719;-60
2023/05/22 12:28:57;;;;;;;6.20;2.90;;;29.70;1.00;;;;;;5092279;28;20172;-60
2023/05/22 12:31:23;;;;;;;10.13;3.35;;;29.20;1.00;;;;;;5092419;28;20579;-60
2023/05/22 12:33:56;;;;;;;9.10;2.90;;;30.20;1.00;;;;;;5092479;28;20255;-60
2023/05/22 12:36:35;;;;;;;8.10;3.45;;;29.90;1.00;;;;;;5092280;28;20251;-60
2023/05/22 12:39:00;;;;;;;6.80;3.15;;;29.90;1.00;;;;;;5092461;28;20300;-60
2023/05/22 12:41:26;;;;;;;7.38;3.25;;;30.40;1.00;;;;;;5047452;28;20610;-60
2023/05/22 12:43:51;;;;;;;4.65;2.85;;;30.30;1.00;;;;;;5051326;28;20174;-60
2023/05/22 12:46:17;;;;;;;6.97;3.40;;;30.00;1.00;;;;;;5052138;28;20169;-60
2023/05/22 12:48:43;;;;;;;9.65;3.45;;;30.20;1.00;;;;;;5052030;28;20550;-60
2023/05/22 12:51:08;;;;;;;6.00;3.20;;;30.30;1.00;;;;;;5051353;28;20188;-60
2023/05/22 12:53:34;;;;;;;7.60;3.78;;;30.40;1.00;;;;;;5051779;28;20184;-61